Presidente Dutra, Brazil
Current Conditions -  °F | °C
As of 11:00 PM on Monday 20 Oct 2014 (Local Time) from SBPL Reporting Station
Clear Clear  
Wind Chill: 88°   Ceiling: Unl
Heat Index: 88°   Visibility: 6mi
Dew Point: 59°   Wind: 7mph
Humidity: 38%   Direction: 140°SE
Pressure: 29.88"   Gusts: NA
Location:  11.3°S, 41.99°W
Report Text: SBPL 210200Z 14006KT CAVOK 31/15 Q1012
Loading
Personal Weather Stations






























Interactive Weather Map
Tropical Storm Tracking
New forecast layout! Learn more

10-Day Weather Forecast

Advertisements
Track Severe Weather on mobile